Time;durP1;ratioP1;P1;durP2;ratioP2;P2;SDS_P1;SDS_P2;PMS_P1;PMS_P2;Temp;Humidity;BMP_temperature;BMP_pressure;BME280_temperature;BME280_humidity;BME280_pressure;Samples;Min_cycle;Max_cycle;Signal;HPM_P1;HPM_P2
2023/01/05 00:01:39;;;;;;;38.38;7.13;;;13.90;1.00;;;;;;5014836;28;20092;-65
2023/01/05 00:04:05;;;;;;;38.53;7.38;;;13.80;1.00;;;;;;4993565;28;20037;-65
2023/01/05 00:06:31;;;;;;;37.15;7.03;;;13.70;1.00;;;;;;4990675;28;20080;-65
2023/01/05 00:08:58;;;;;;;38.53;6.75;;;13.80;1.00;;;;;;4977669;28;20046;-65
2023/01/05 00:22:30;;;;;;;41.70;6.88;;;13.80;1.00;;;;;;4993416;28;20045;-65
2023/01/05 00:24:57;;;;;;;40.03;7.15;;;13.90;1.00;;;;;;4992919;28;20034;-65
2023/01/05 00:27:22;;;;;;;38.53;6.88;;;13.80;1.00;;;;;;4999206;28;20048;-65
2023/01/05 00:29:48;;;;;;;32.33;6.63;;;13.70;1.00;;;;;;4994559;28;20051;-65
2023/01/05 00:32:13;;;;;;;39.78;6.85;;;13.70;1.00;;;;;;4994701;28;20089;-65
2023/01/05 00:34:39;;;;;;;34.40;6.28;;;13.80;1.00;;;;;;5012563;28;20096;-66
2023/01/05 00:37:04;;;;;;;28.63;6.47;;;13.90;1.00;;;;;;4996370;28;20178;-65
2023/01/05 00:39:30;;;;;;;35.13;6.50;;;13.80;1.00;;;;;;4994676;28;20496;-65
2023/01/05 00:41:55;;;;;;;37.78;6.40;;;13.90;1.00;;;;;;4996494;28;20402;-65
2023/01/05 00:44:21;;;;;;;41.38;7.20;;;13.90;1.00;;;;;;4988167;28;20112;-65
2023/01/05 00:46:47;;;;;;;36.47;6.53;;;13.90;1.00;;;;;;4992134;28;20034;-65
2023/01/05 00:49:12;;;;;;;33.55;6.68;;;13.90;1.00;;;;;;4996925;28;20037;-65
2023/01/05 00:51:38;;;;;;;36.17;7.00;;;13.90;1.00;;;;;;4992265;28;20030;-65
2023/01/05 00:54:03;;;;;;;39.63;6.93;;;14.00;1.00;;;;;;4976411;28;20042;-65
2023/01/05 00:56:29;;;;;;;33.45;6.45;;;13.90;1.00;;;;;;4980644;28;20512;-65
2023/01/05 00:58:54;;;;;;;35.97;6.65;;;13.90;99.90;;;;;;4979756;28;20037;-65
2023/01/05 01:01:20;;;;;;;33.83;6.47;;;13.90;99.90;;;;;;4995438;28;20035;-65
2023/01/05 01:03:46;;;;;;;37.15;6.78;;;14.00;99.90;;;;;;4987416;28;20069;-65
2023/01/05 01:06:12;;;;;;;28.48;6.38;;;13.90;99.90;;;;;;5013144;28;20068;-65
2023/01/05 01:08:38;;;;;;;34.90;7.43;;;13.90;99.90;;;;;;4995008;28;20053;-65
2023/01/05 01:11:08;;;;;;;39.08;7.18;;;13.80;99.90;;;;;;4994236;28;20042;-65
2023/01/05 01:13:34;;;;;;;40.40;6.85;;;14.00;99.90;;;;;;5007170;28;20104;-65
2023/01/05 01:16:08;;;;;;;39.03;7.47;;;13.90;99.90;;;;;;4994195;28;20053;-65
2023/01/05 01:18:34;;;;;;;37.13;6.13;;;13.90;99.90;;;;;;5010718;28;20096;-65
2023/01/05 01:21:00;;;;;;;37.40;6.78;;;13.90;99.90;;;;;;4983114;28;20164;-65
2023/01/05 01:23:27;;;;;;;34.35;6.78;;;13.90;99.90;;;;;;4976566;28;20034;-65
2023/01/05 01:25:52;;;;;;;38.75;6.88;;;13.70;99.90;;;;;;4994115;28;20100;-65
2023/01/05 01:28:18;;;;;;;40.05;7.80;;;13.80;99.90;;;;;;4997513;28;20408;-65
2023/01/05 01:30:43;;;;;;;33.88;6.75;;;13.80;99.90;;;;;;4986430;28;20049;-65
2023/01/05 01:33:09;;;;;;;37.90;7.20;;;13.90;99.90;;;;;;4993592;28;20041;-64
2023/01/05 01:35:38;;;;;;;32.08;6.60;;;13.80;99.90;;;;;;4975399;28;20038;-65
2023/01/05 01:38:03;;;;;;;40.97;7.53;;;13.80;99.90;;;;;;4975231;28;20077;-65
2023/01/05 01:40:29;;;;;;;41.53;7.47;;;13.70;99.90;;;;;;4976222;28;20132;-65
2023/01/05 01:42:54;;;;;;;42.88;7.43;;;13.70;99.90;;;;;;4975755;28;20045;-65
2023/01/05 01:45:24;;;;;;;35.58;6.20;;;13.60;1.00;;;;;;4989219;28;20077;-65
2023/01/05 01:47:59;;;;;;;41.28;7.25;;;13.60;1.00;;;;;;4994002;28;20049;-65
2023/01/05 01:50:28;;;;;;;36.75;6.78;;;14.10;1.00;;;;;;4987378;28;20510;-65
2023/01/05 01:53:06;;;;;;;41.33;7.28;;;13.60;1.00;;;;;;5007993;28;20053;-65
2023/01/05 01:55:33;;;;;;;35.20;6.97;;;13.50;1.00;;;;;;4977740;28;20042;-65
2023/01/05 01:58:01;;;;;;;43.55;7.75;;;13.60;1.00;;;;;;5004727;28;20046;-65
2023/01/05 02:00:27;;;;;;;43.05;7.13;;;13.60;1.00;;;;;;4988606;28;20046;-65
2023/01/05 02:02:54;;;;;;;33.25;7.90;;;13.40;1.00;;;;;;4974524;28;20030;-65
2023/01/05 02:05:24;;;;;;;43.15;7.82;;;13.40;1.00;;;;;;4984018;28;20053;-65
2023/01/05 02:07:50;;;;;;;34.28;6.60;;;13.30;1.00;;;;;;4987280;28;20038;-65
2023/01/05 02:10:20;;;;;;;39.95;7.20;;;13.50;1.00;;;;;;4976893;28;20092;-65
2023/01/05 02:13:15;;;;;;;43.92;7.22;;;13.50;1.00;;;;;;4995147;28;20038;-65
2023/01/05 02:15:50;;;;;;;34.05;6.25;;;13.50;1.00;;;;;;4994474;28;20038;-65
2023/01/05 02:18:21;;;;;;;48.97;7.50;;;13.60;1.00;;;;;;4988203;28;20038;-65
2023/01/05 02:20:59;;;;;;;45.72;8.00;;;13.40;1.00;;;;;;4986054;28;20043;-64
2023/01/05 02:24:04;;;;;;;42.28;7.03;;;13.50;1.00;;;;;;5008000;28;20034;-65
2023/01/05 02:26:53;;;;;;;41.78;7.43;;;13.40;1.00;;;;;;4976803;28;20046;-64
2023/01/05 02:29:38;;;;;;;36.38;6.20;;;13.40;1.00;;;;;;4975432;28;20114;-65
2023/01/05 02:32:22;;;;;;;40.25;7.18;;;13.40;1.00;;;;;;4994872;28;20552;-65
2023/01/05 02:35:14;;;;;;;34.97;6.55;;;13.40;1.00;;;;;;4994863;28;20049;-64
2023/01/05 02:37:44;;;;;;;49.33;8.40;;;13.50;1.00;;;;;;4972574;28;20050;-65
2023/01/05 02:40:20;;;;;;;41.70;7.43;;;13.50;1.00;;;;;;4980316;28;20054;-65
2023/01/05 02:42:49;;;;;;;41.05;7.82;;;13.30;1.00;;;;;;4994223;28;20042;-65
2023/01/05 02:45:16;;;;;;;40.60;7.72;;;13.50;1.00;;;;;;4994719;28;20072;-65
2023/01/05 02:47:43;;;;;;;37.92;6.90;;;13.40;16.70;;;;;;4983797;28;20034;-65
2023/01/05 02:50:31;;;;;;;43.63;7.00;;;13.40;36.40;;;;;;4987373;28;20053;-65
2023/01/05 02:53:05;;;;;;;38.00;6.82;;;13.20;71.60;;;;;;4975978;28;20049;-65
2023/01/05 02:55:48;;;;;;;43.47;7.82;;;13.30;94.30;;;;;;4977045;28;20048;-65
2023/01/05 02:58:41;;;;;;;42.17;8.02;;;13.50;97.40;;;;;;4993569;28;20525;-65
2023/01/05 03:01:18;;;;;;;40.38;7.38;;;13.30;91.20;;;;;;4979376;28;20046;-65
2023/01/05 03:04:07;;;;;;;43.50;6.82;;;13.30;74.30;;;;;;4998727;28;20491;-64
2023/01/05 03:06:37;;;;;;;34.75;6.65;;;13.50;57.80;;;;;;4997380;28;20081;-65
2023/01/05 03:09:04;;;;;;;33.50;6.88;;;13.30;29.30;;;;;;4998395;28;20038;-65
2023/01/05 03:14:41;;;;;;;36.95;6.65;;;13.40;22.00;;;;;;4993193;28;20052;-65
2023/01/05 03:17:10;;;;;;;47.15;7.35;;;13.60;8.10;;;;;;4991060;28;20033;-65
2023/01/05 03:19:40;;;;;;;37.92;7.32;;;13.40;3.80;;;;;;4986922;28;20038;-65
2023/01/05 03:36:17;;;;;;;39.65;6.95;;;13.60;1.00;;;;;;4992480;28;20056;-65
2023/01/05 03:38:46;;;;;;;46.25;7.95;;;13.60;1.00;;;;;;5013092;28;20034;-64
2023/01/05 03:41:15;;;;;;;41.10;6.85;;;13.70;1.00;;;;;;4994828;28;20049;-65
2023/01/05 03:43:41;;;;;;;34.65;7.25;;;13.70;1.00;;;;;;5017776;28;20072;-65
2023/01/05 03:46:16;;;;;;;33.00;6.70;;;13.70;1.00;;;;;;5017582;28;20045;-64
2023/01/05 03:48:42;;;;;;;37.83;7.18;;;13.50;1.00;;;;;;5020578;28;20038;-64
2023/01/05 03:51:08;;;;;;;49.58;7.43;;;13.60;1.00;;;;;;5001776;28;20038;-65
2023/01/05 03:53:33;;;;;;;45.45;7.07;;;13.60;1.00;;;;;;4994516;28;20034;-65
2023/01/05 03:55:59;;;;;;;49.40;7.53;;;13.40;1.00;;;;;;4988792;28;20078;-65
2023/01/05 03:58:25;;;;;;;41.72;7.93;;;13.60;1.00;;;;;;4993756;28;20049;-65
2023/01/05 04:00:51;;;;;;;46.40;7.13;;;13.40;1.00;;;;;;4999049;28;20065;-64
2023/01/05 04:03:16;;;;;;;48.30;8.77;;;13.40;1.00;;;;;;5017487;28;20080;-65
2023/01/05 04:05:42;;;;;;;43.30;7.40;;;13.50;1.00;;;;;;5016950;28;20042;-64
2023/01/05 04:08:07;;;;;;;50.85;7.95;;;13.40;1.00;;;;;;5016738;28;20049;-65
2023/01/05 04:10:33;;;;;;;48.80;7.57;;;13.60;1.00;;;;;;5009018;28;20089;-64
2023/01/05 04:12:58;;;;;;;40.85;7.38;;;13.60;1.00;;;;;;4995019;28;20044;-65
2023/01/05 04:15:24;;;;;;;35.03;7.43;;;13.60;1.00;;;;;;5006887;28;20061;-65
2023/01/05 04:17:50;;;;;;;38.33;7.13;;;13.60;1.00;;;;;;4996975;28;20049;-65
2023/01/05 04:20:15;;;;;;;53.40;8.15;;;13.70;1.00;;;;;;4989702;28;20069;-65
2023/01/05 04:22:41;;;;;;;32.45;6.65;;;13.70;1.00;;;;;;4977863;28;20057;-65
2023/01/05 04:25:07;;;;;;;51.00;8.63;;;13.50;1.00;;;;;;4996184;28;20037;-64
2023/01/05 04:27:33;;;;;;;47.67;8.35;;;13.60;1.00;;;;;;4988285;28;20120;-65
2023/01/05 04:29:58;;;;;;;38.10;8.23;;;13.60;1.00;;;;;;4980965;28;20093;-65
2023/01/05 04:32:24;;;;;;;40.13;7.60;;;13.70;1.00;;;;;;4978558;28;20049;-65
2023/01/05 04:34:49;;;;;;;36.08;7.20;;;13.70;1.00;;;;;;4995520;28;20045;-64
2023/01/05 04:37:15;;;;;;;41.38;7.28;;;13.70;1.00;;;;;;5013821;28;20038;-65
2023/01/05 04:39:40;;;;;;;46.22;7.75;;;13.50;1.00;;;;;;4996499;28;20050;-65
2023/01/05 04:42:06;;;;;;;45.58;7.80;;;13.90;1.00;;;;;;4992877;28;20270;-64
2023/01/05 04:44:31;;;;;;;36.90;6.15;;;13.50;1.00;;;;;;4995375;28;20119;-65
2023/01/05 04:46:57;;;;;;;40.40;7.28;;;13.50;1.00;;;;;;4993094;28;20050;-65
2023/01/05 04:49:23;;;;;;;40.33;6.63;;;13.60;1.00;;;;;;4977675;28;20344;-65
2023/01/05 04:51:48;;;;;;;43.70;7.28;;;13.60;1.00;;;;;;4980120;28;20454;-64
2023/01/05 04:54:14;;;;;;;41.17;6.85;;;13.70;1.00;;;;;;4988935;28;20065;-65
2023/01/05 04:56:39;;;;;;;35.08;7.03;;;13.70;1.00;;;;;;4985644;28;20046;-65
2023/01/05 04:59:05;;;;;;;39.70;7.55;;;13.70;1.00;;;;;;4984288;28;20562;-65
2023/01/05 05:01:30;;;;;;;41.22;7.18;;;13.70;1.00;;;;;;4981862;28;20440;-64
2023/01/05 05:03:56;;;;;;;45.83;7.95;;;13.50;1.00;;;;;;5001316;28;21390;-65
2023/01/05 05:06:21;;;;;;;46.17;7.63;;;13.50;1.00;;;;;;4999418;28;20034;-65
2023/01/05 05:08:47;;;;;;;46.83;7.18;;;13.50;1.00;;;;;;4990048;28;20046;-65
2023/01/05 05:11:13;;;;;;;42.13;7.70;;;13.70;1.00;;;;;;4995627;28;20029;-65
2023/01/05 05:13:38;;;;;;;35.53;7.32;;;13.60;1.00;;;;;;4980400;28;20046;-64
2023/01/05 05:16:04;;;;;;;40.67;7.40;;;13.70;1.00;;;;;;4963633;28;20454;-65
2023/01/05 05:18:30;;;;;;;44.67;7.82;;;13.50;1.00;;;;;;4984145;28;20128;-65
2023/01/05 05:20:55;;;;;;;33.28;5.82;;;13.60;1.00;;;;;;4976503;28;20038;-65
2023/01/05 05:23:21;;;;;;;45.90;7.82;;;13.50;1.00;;;;;;5000725;28;20101;-65
2023/01/05 05:25:50;;;;;;;41.78;7.50;;;13.60;1.00;;;;;;4981289;28;20128;-64
2023/01/05 05:28:16;;;;;;;35.47;6.85;;;13.60;1.00;;;;;;4983598;28;20030;-65
2023/01/05 05:30:41;;;;;;;36.67;6.43;;;13.70;1.00;;;;;;4987455;28;20038;-65
2023/01/05 05:33:07;;;;;;;33.28;6.20;;;13.70;1.00;;;;;;4992616;28;20484;-65
2023/01/05 05:35:33;;;;;;;37.67;6.75;;;13.50;1.00;;;;;;4986305;28;20440;-65
2023/01/05 05:38:00;;;;;;;43.80;7.63;;;13.60;1.00;;;;;;4981991;28;20591;-65
2023/01/05 05:40:25;;;;;;;44.38;7.00;;;13.50;1.00;;;;;;4983015;28;20129;-65
2023/01/05 05:42:51;;;;;;;46.22;8.13;;;13.50;1.00;;;;;;4980078;28;20066;-65
2023/01/05 05:45:17;;;;;;;39.92;7.32;;;13.60;1.00;;;;;;4974307;28;20073;-70
2023/01/05 05:47:42;;;;;;;41.47;7.50;;;13.50;1.00;;;;;;4980711;28;20124;-64
2023/01/05 05:50:09;;;;;;;35.97;7.40;;;13.50;1.00;;;;;;4993682;28;20056;-64
2023/01/05 05:52:34;;;;;;;37.80;6.95;;;13.60;1.00;;;;;;4975400;28;20042;-65
2023/01/05 05:55:00;;;;;;;42.00;7.28;;;13.70;1.00;;;;;;4976810;28;20050;-65
2023/01/05 05:57:26;;;;;;;36.08;7.53;;;13.70;1.00;;;;;;4975643;28;20038;-65
2023/01/05 05:59:51;;;;;;;33.63;6.65;;;13.60;1.00;;;;;;4993299;28;20097;-64
2023/01/05 06:02:18;;;;;;;38.85;8.05;;;13.70;1.00;;;;;;4992837;28;20402;-67
2023/01/05 06:04:44;;;;;;;40.67;8.20;;;13.50;1.00;;;;;;4983822;28;20554;-64
2023/01/05 06:07:09;;;;;;;38.55;7.75;;;13.50;1.00;;;;;;4981389;28;20089;-65
2023/01/05 06:09:35;;;;;;;37.80;7.80;;;13.70;1.00;;;;;;4972253;28;20050;-65
2023/01/05 06:12:00;;;;;;;35.65;7.75;;;13.70;1.00;;;;;;4978623;28;20046;-66
2023/01/05 06:14:26;;;;;;;45.00;7.93;;;13.70;1.00;;;;;;4985999;28;20129;-66
2023/01/05 06:16:52;;;;;;;43.40;7.63;;;13.70;1.00;;;;;;5010321;28;20076;-65
2023/01/05 06:19:17;;;;;;;36.95;7.05;;;13.80;1.00;;;;;;4988982;28;20122;-65
2023/01/05 06:21:43;;;;;;;38.33;6.10;;;13.70;1.00;;;;;;4996495;28;20034;-66
2023/01/05 06:24:08;;;;;;;36.55;5.68;;;13.50;1.00;;;;;;4976914;28;20241;-65
2023/01/05 06:26:34;;;;;;;37.33;6.82;;;13.50;1.00;;;;;;4990381;28;20037;-65
2023/01/05 06:28:59;;;;;;;43.80;7.35;;;13.50;1.00;;;;;;4974813;28;20089;-66
2023/01/05 06:31:25;;;;;;;40.95;7.93;;;13.50;1.00;;;;;;4982814;28;20117;-65
2023/01/05 06:33:50;;;;;;;35.50;7.40;;;13.50;1.00;;;;;;4975889;28;20258;-65
2023/01/05 06:36:16;;;;;;;29.83;6.07;;;13.50;1.00;;;;;;4975528;28;20049;-65
2023/01/05 06:38:42;;;;;;;38.33;6.32;;;13.60;1.00;;;;;;4975010;28;20125;-65
2023/01/05 06:41:07;;;;;;;26.83;5.25;;;13.30;1.00;;;;;;4976562;28;20047;-65
2023/01/05 06:43:33;;;;;;;42.92;7.18;;;13.40;1.00;;;;;;4985460;28;20042;-65
2023/01/05 06:45:58;;;;;;;34.25;6.85;;;13.50;1.00;;;;;;4979266;28;20122;-65
2023/01/05 06:48:24;;;;;;;35.72;6.35;;;13.30;1.00;;;;;;4985358;28;20157;-65
2023/01/05 06:50:49;;;;;;;30.48;5.63;;;13.50;1.00;;;;;;4980530;28;20033;-65
2023/01/05 06:53:15;;;;;;;38.65;7.30;;;13.50;1.00;;;;;;4987132;28;20042;-65
2023/01/05 06:55:41;;;;;;;36.20;7.55;;;13.50;1.00;;;;;;4990418;28;20062;-65
2023/01/05 06:58:06;;;;;;;36.65;6.75;;;13.50;1.00;;;;;;4984428;28;20038;-65
2023/01/05 07:00:32;;;;;;;34.38;6.20;;;13.30;1.00;;;;;;4990910;28;20042;-65
2023/01/05 07:02:57;;;;;;;41.15;8.43;;;13.50;2.80;;;;;;4980959;28;20038;-64
2023/01/05 07:05:23;;;;;;;43.70;8.10;;;13.40;10.20;;;;;;4992967;28;20483;-64
2023/01/05 07:07:49;;;;;;;38.17;7.80;;;13.40;12.20;;;;;;4982624;28;20077;-65
2023/01/05 07:10:15;;;;;;;40.40;8.20;;;13.50;7.30;;;;;;4991916;28;20049;-65
2023/01/05 07:12:40;;;;;;;40.65;7.72;;;13.50;2.20;;;;;;4987879;28;20129;-65
2023/01/05 07:15:07;;;;;;;33.47;6.68;;;13.50;1.00;;;;;;4981539;28;20041;-66
2023/01/05 07:17:32;;;;;;;41.95;7.47;;;13.40;1.00;;;;;;5000263;28;20124;-65
2023/01/05 07:19:58;;;;;;;39.65;8.23;;;14.20;1.00;;;;;;4983202;28;20117;-65
2023/01/05 07:22:24;;;;;;;34.80;6.97;;;13.40;1.00;;;;;;4975697;28;20141;-65
2023/01/05 07:24:49;;;;;;;34.70;6.90;;;13.60;1.00;;;;;;4993799;28;20478;-65
2023/01/05 07:27:15;;;;;;;43.13;6.50;;;13.60;1.00;;;;;;4979386;28;20069;-65
2023/01/05 07:29:40;;;;;;;29.45;6.88;;;13.40;1.00;;;;;;4977158;28;20403;-65
2023/01/05 07:32:06;;;;;;;39.10;6.50;;;13.60;1.00;;;;;;4982614;28;20471;-65
2023/01/05 07:34:32;;;;;;;39.60;7.18;;;13.40;1.00;;;;;;4974858;28;20042;-65
2023/01/05 07:36:57;;;;;;;35.80;6.75;;;13.40;1.00;;;;;;4976327;28;20046;-65
2023/01/05 07:39:23;;;;;;;34.00;7.03;;;13.40;1.00;;;;;;4983084;28;20116;-65
2023/01/05 07:41:48;;;;;;;40.13;8.18;;;13.60;1.00;;;;;;4978430;28;20444;-65
2023/01/05 07:44:14;;;;;;;54.75;8.40;;;13.90;1.00;;;;;;4971812;28;20047;-65
2023/01/05 07:46:39;;;;;;;45.70;10.23;;;13.40;1.00;;;;;;4983247;28;20073;-65
2023/01/05 07:49:05;;;;;;;42.33;7.53;;;13.40;1.00;;;;;;4979085;28;20046;-65
2023/01/05 07:51:30;;;;;;;35.85;6.72;;;13.60;1.00;;;;;;4979094;28;20053;-65
2023/01/05 07:53:56;;;;;;;30.73;6.38;;;13.40;1.00;;;;;;5009644;28;20038;-65
2023/01/05 07:56:22;;;;;;;41.67;7.20;;;13.40;1.00;;;;;;4978605;28;20039;-65
2023/01/05 07:58:47;;;;;;;44.17;6.82;;;13.60;1.00;;;;;;4982433;28;20085;-65
2023/01/05 08:01:16;;;;;;;36.65;6.30;;;13.40;1.00;;;;;;4985966;28;20049;-65
2023/01/05 08:03:41;;;;;;;34.58;7.05;;;13.50;1.00;;;;;;4986750;28;20030;-65
2023/01/05 08:06:10;;;;;;;40.78;7.93;;;13.90;1.00;;;;;;4978141;28;20089;-65
2023/01/05 08:08:36;;;;;;;38.33;6.97;;;13.50;1.00;;;;;;4984507;28;20069;-65
2023/01/05 08:11:05;;;;;;;33.47;6.47;;;13.60;1.00;;;;;;4989601;28;20072;-65
2023/01/05 08:16:15;;;;;;;29.30;6.80;;;13.30;1.00;;;;;;4997305;28;20057;-65
2023/01/05 08:18:40;;;;;;;37.95;6.57;;;13.30;1.00;;;;;;4996564;28;20045;-65
2023/01/05 08:21:07;;;;;;;41.05;7.40;;;13.60;1.00;;;;;;4987757;28;20070;-64
2023/01/05 08:23:33;;;;;;;40.70;7.35;;;13.40;1.00;;;;;;4985645;28;20030;-67
2023/01/05 08:26:04;;;;;;;36.80;6.88;;;13.50;1.00;;;;;;4989855;28;20061;-65
2023/01/05 08:28:30;;;;;;;34.03;6.85;;;13.60;99.90;;;;;;5004605;28;20046;-66
2023/01/05 08:31:04;;;;;;;45.10;7.28;;;13.60;99.90;;;;;;4984372;28;20049;-65
2023/01/05 08:33:30;;;;;;;38.17;7.30;;;13.60;99.90;;;;;;4995279;28;20053;-65
2023/01/05 08:35:55;;;;;;;49.42;8.32;;;13.50;99.90;;;;;;4977744;28;20054;-65
2023/01/05 08:38:21;;;;;;;39.13;7.88;;;13.50;99.90;;;;;;4985795;28;20120;-65
2023/01/05 08:40:47;;;;;;;41.15;7.45;;;13.60;99.90;;;;;;4987663;28;20055;-65
2023/01/05 08:43:13;;;;;;;40.60;7.05;;;13.50;99.90;;;;;;4994264;28;20501;-65
2023/01/05 08:45:38;;;;;;;50.45;7.53;;;13.50;99.90;;;;;;4997081;28;20038;-65
2023/01/05 08:48:04;;;;;;;43.40;6.88;;;13.40;99.90;;;;;;4991094;28;20037;-65
2023/01/05 08:50:30;;;;;;;36.10;7.53;;;13.60;99.90;;;;;;4984985;28;20038;-65
2023/01/05 08:52:56;;;;;;;39.00;7.05;;;13.40;1.00;;;;;;4984669;28;20559;-65
2023/01/05 08:55:22;;;;;;;37.78;7.38;;;13.40;1.00;;;;;;4977279;28;20408;-65
2023/01/05 08:57:48;;;;;;;39.85;7.18;;;13.60;99.90;;;;;;4977636;28;20043;-65
2023/01/05 09:00:16;;;;;;;34.28;6.55;;;13.50;99.90;;;;;;5009581;28;20125;-65
2023/01/05 09:02:42;;;;;;;35.35;6.78;;;13.70;99.90;;;;;;4995118;28;20038;-66
2023/01/05 09:05:08;;;;;;;30.17;6.50;;;13.40;99.90;;;;;;4993304;28;20133;-65
2023/01/05 09:07:33;;;;;;;29.20;6.15;;;13.70;99.90;;;;;;5000783;28;20119;-65
2023/01/05 09:09:59;;;;;;;38.03;7.28;;;13.50;1.00;;;;;;4967114;28;20042;-64
2023/01/05 09:12:24;;;;;;;42.03;7.07;;;13.50;1.00;;;;;;4984098;28;20050;-64
2023/01/05 09:14:50;;;;;;;37.33;7.15;;;13.70;1.00;;;;;;4988770;28;20081;-65
2023/01/05 09:17:16;;;;;;;39.22;7.30;;;13.50;1.00;;;;;;4996747;28;20050;-65
2023/01/05 09:19:41;;;;;;;31.65;6.35;;;13.70;1.00;;;;;;4977033;28;20041;-65
2023/01/05 09:22:07;;;;;;;39.95;6.47;;;13.70;1.00;;;;;;4978358;28;20038;-65
2023/01/05 09:24:32;;;;;;;41.00;7.18;;;13.70;1.00;;;;;;4977172;28;20046;-64
2023/01/05 09:26:58;;;;;;;32.42;5.80;;;13.60;1.00;;;;;;4983993;28;20041;-65
2023/01/05 09:29:24;;;;;;;34.40;6.40;;;13.90;99.90;;;;;;4987196;28;20053;-65
2023/01/05 09:31:50;;;;;;;38.63;6.40;;;13.60;1.00;;;;;;4982920;28;20124;-65
2023/01/05 09:34:17;;;;;;;37.40;6.60;;;13.60;1.00;;;;;;4986582;28;20125;-65
2023/01/05 09:36:43;;;;;;;38.75;6.35;;;13.80;99.90;;;;;;4980601;28;20046;-65
2023/01/05 09:39:09;;;;;;;43.70;6.50;;;13.80;99.90;;;;;;4980976;28;20499;-65
2023/01/05 09:41:57;;;;;;;29.65;5.63;;;13.60;99.90;;;;;;4982865;28;20038;-65
2023/01/05 09:44:30;;;;;;;32.03;6.00;;;13.60;99.90;;;;;;5002528;28;20049;-65
2023/01/05 09:47:01;;;;;;;45.85;6.68;;;13.80;99.90;;;;;;4988108;28;20435;-64
2023/01/05 09:49:28;;;;;;;30.10;5.60;;;13.60;99.90;;;;;;4994115;28;20041;-65
2023/01/05 09:52:00;;;;;;;46.22;6.90;;;13.80;99.90;;;;;;4980496;28;20038;-65
2023/01/05 09:54:29;;;;;;;33.80;7.35;;;13.80;99.90;;;;;;4977249;28;20050;-65
2023/01/05 09:56:56;;;;;;;42.17;6.22;;;13.70;1.00;;;;;;4984425;28;20053;-64
2023/01/05 09:59:30;;;;;;;39.72;5.90;;;13.70;1.00;;;;;;4991343;28;20113;-65
2023/01/05 10:01:59;;;;;;;39.17;6.88;;;13.80;1.00;;;;;;4991238;28;20423;-65
2023/01/05 10:04:27;;;;;;;34.30;5.15;;;13.60;1.00;;;;;;4977452;28;20034;-65
2023/01/05 10:07:01;;;;;;;40.97;7.57;;;13.60;1.00;;;;;;4988988;28;20038;-65
2023/01/05 10:09:32;;;;;;;34.33;5.88;;;13.70;1.00;;;;;;4977069;28;20277;-66
2023/01/05 10:15:29;;;;;;;32.10;6.13;;;13.60;1.00;;;;;;4977583;28;20407;-65
2023/01/05 10:17:54;;;;;;;40.35;6.70;;;13.90;1.00;;;;;;4984206;28;20145;-65
2023/01/05 10:20:54;;;;;;;33.42;5.93;;;13.80;1.00;;;;;;4977508;28;20124;-65
2023/01/05 10:23:47;;;;;;;33.92;5.55;;;13.90;1.00;;;;;;4983244;28;20042;-65
2023/01/05 10:26:32;;;;;;;42.03;6.68;;;13.70;99.90;;;;;;4975541;28;20038;-65
2023/01/05 10:29:06;;;;;;;43.15;6.75;;;13.80;1.00;;;;;;4984744;28;20042;-65
2023/01/05 10:31:46;;;;;;;40.63;6.25;;;13.90;1.00;;;;;;4980904;28;20104;-65
2023/01/05 10:34:22;;;;;;;40.72;6.03;;;13.70;1.00;;;;;;4989953;28;20049;-65
2023/01/05 10:37:03;;;;;;;42.22;6.20;;;13.80;1.00;;;;;;4987906;28;20053;-66
2023/01/05 10:40:03;;;;;;;33.97;7.07;;;13.80;1.00;;;;;;4982123;28;20500;-65
2023/01/05 10:43:06;;;;;;;34.83;6.60;;;13.80;1.00;;;;;;4987134;28;20183;-65
2023/01/05 10:45:32;;;;;;;43.78;5.82;;;13.80;99.90;;;;;;4978188;28;20092;-65
2023/01/05 10:47:59;;;;;;;36.28;5.93;;;14.00;99.90;;;;;;4988599;28;20037;-64
2023/01/05 10:50:34;;;;;;;36.55;6.80;;;13.90;99.90;;;;;;4994574;28;20132;-65
2023/01/05 10:53:07;;;;;;;45.53;6.35;;;13.80;99.90;;;;;;4984569;28;20114;-66
2023/01/05 10:55:40;;;;;;;43.17;6.68;;;14.00;99.90;;;;;;4981848;28;20052;-65
2023/01/05 10:58:20;;;;;;;35.33;5.68;;;14.00;1.00;;;;;;4976821;28;20512;-66
2023/01/05 11:00:46;;;;;;;39.95;5.97;;;14.20;99.90;;;;;;4987502;28;20038;-65
2023/01/05 11:03:15;;;;;;;36.97;6.57;;;13.80;99.90;;;;;;4992363;28;20029;-65
2023/01/05 11:05:44;;;;;;;41.83;6.38;;;13.80;99.90;;;;;;4988393;28;20042;-65
2023/01/05 11:08:21;;;;;;;42.22;6.15;;;13.70;99.90;;;;;;4992074;28;20096;-65
2023/01/05 11:10:55;;;;;;;43.63;6.18;;;13.90;99.90;;;;;;4990787;28;20065;-64
2023/01/05 11:13:26;;;;;;;33.63;5.45;;;16.30;99.90;;;;;;4990911;28;20041;-66
2023/01/05 11:15:54;;;;;;;41.03;6.50;;;13.70;1.00;;;;;;4980834;28;20038;-65
2023/01/05 11:18:44;;;;;;;35.75;6.43;;;13.90;1.00;;;;;;4998820;28;20053;-65
2023/01/05 11:21:16;;;;;;;33.85;5.38;;;13.90;1.00;;;;;;4990223;28;20042;-65
2023/01/05 11:23:44;;;;;;;44.58;6.75;;;13.70;1.00;;;;;;4987153;28;20118;-65
2023/01/05 11:26:40;;;;;;;33.85;6.05;;;13.80;1.00;;;;;;4984074;28;20153;-64
2023/01/05 11:29:09;;;;;;;40.85;5.97;;;13.80;1.00;;;;;;4975014;28;20419;-64
2023/01/05 11:31:42;;;;;;;34.10;5.50;;;13.90;1.00;;;;;;4993812;28;20096;-64
2023/01/05 11:34:20;;;;;;;42.08;5.35;;;13.80;1.00;;;;;;4981561;28;20444;-64
2023/01/05 11:37:01;;;;;;;31.65;5.50;;;13.80;1.00;;;;;;4996539;28;20099;-64
2023/01/05 11:39:48;;;;;;;43.58;5.82;;;13.90;1.00;;;;;;5010823;28;20111;-64
2023/01/05 11:42:23;;;;;;;38.22;6.07;;;13.70;1.00;;;;;;4988337;28;20518;-64
2023/01/05 11:44:55;;;;;;;41.08;6.35;;;13.90;1.00;;;;;;5007715;28;20041;-64
2023/01/05 11:47:23;;;;;;;40.70;6.13;;;14.00;1.00;;;;;;4999302;28;20041;-66
2023/01/05 11:50:00;;;;;;;35.72;6.97;;;14.10;3.10;;;;;;4978063;28;20046;-64
2023/01/05 11:52:32;;;;;;;41.42;6.32;;;14.10;20.90;;;;;;4982234;28;20053;-64
2023/01/05 11:54:58;;;;;;;43.67;5.95;;;14.00;4.30;;;;;;5005283;28;20065;-64
2023/01/05 11:57:25;;;;;;;56.33;7.15;;;14.00;1.00;;;;;;5019035;28;20088;-65
2023/01/05 11:59:53;;;;;;;29.48;5.43;;;14.00;1.00;;;;;;4991806;28;20412;-64
2023/01/05 12:02:41;;;;;;;35.67;6.80;;;14.20;1.00;;;;;;4979494;28;20581;-65
2023/01/05 12:05:12;;;;;;;38.22;5.65;;;14.00;1.00;;;;;;4990198;28;20053;-65
2023/01/05 12:07:46;;;;;;;34.15;5.47;;;14.00;1.00;;;;;;4981938;28;20415;-64
2023/01/05 12:10:37;;;;;;;35.72;5.47;;;13.90;1.00;;;;;;4980917;28;20038;-65
2023/01/05 12:13:10;;;;;;;34.65;5.95;;;14.00;1.00;;;;;;4983332;28;20037;-64
2023/01/05 12:16:11;;;;;;;36.03;6.22;;;14.00;1.00;;;;;;4986579;28;20045;-64
2023/01/05 12:19:23;;;;;;;40.05;5.60;;;13.90;1.00;;;;;;4981208;28;20488;-64
2023/01/05 12:22:22;;;;;;;36.72;5.68;;;13.90;1.00;;;;;;4934350;29;20126;-65
2023/01/05 12:24:56;;;;;;;35.08;5.70;;;13.90;1.00;;;;;;4938275;29;20039;-65
2023/01/05 12:27:49;;;;;;;39.58;7.53;;;14.10;1.00;;;;;;4983000;28;20048;-64
2023/01/05 12:30:44;;;;;;;32.15;5.25;;;14.10;1.00;;;;;;5012875;28;20484;-65
2023/01/05 12:33:15;;;;;;;41.22;5.45;;;14.00;1.00;;;;;;4996274;28;20574;-64
2023/01/05 12:35:41;;;;;;;30.95;5.40;;;14.30;1.00;;;;;;4992526;28;20038;-65
2023/01/05 12:38:35;;;;;;;30.48;4.82;;;14.30;10.20;;;;;;4981617;28;20451;-64
2023/01/05 12:41:36;;;;;;;24.30;5.40;;;14.10;16.40;;;;;;4990692;28;20448;-64
2023/01/05 12:44:29;;;;;;;36.58;6.13;;;14.30;5.20;;;;;;4984332;28;20038;-65
2023/01/05 12:47:13;;;;;;;31.75;5.25;;;14.20;1.00;;;;;;4988155;28;20038;-64
2023/01/05 12:49:53;;;;;;;37.17;5.32;;;14.40;1.00;;;;;;4996296;28;20038;-65
2023/01/05 12:52:34;;;;;;;36.10;5.30;;;14.20;1.00;;;;;;4981977;28;20038;-64
2023/01/05 12:55:03;;;;;;;32.40;5.38;;;14.30;99.90;;;;;;4977072;28;20511;-65
2023/01/05 12:57:39;;;;;;;35.47;5.80;;;14.30;1.00;;;;;;4988127;28;20072;-65
2023/01/05 13:00:12;;;;;;;42.45;6.60;;;14.20;99.90;;;;;;4985014;28;20050;-64
2023/01/05 13:02:48;;;;;;;32.70;5.63;;;14.30;1.00;;;;;;4994237;28;20124;-64
2023/01/05 13:05:38;;;;;;;37.25;6.07;;;14.20;1.00;;;;;;4994283;28;20120;-64
2023/01/05 13:08:14;;;;;;;26.95;5.10;;;14.20;99.90;;;;;;4982600;28;20140;-64
2023/01/05 13:11:19;;;;;;;32.50;5.57;;;14.10;1.00;;;;;;4984431;28;20045;-64
2023/01/05 13:13:53;;;;;;;30.65;5.80;;;14.00;99.90;;;;;;4987684;28;20085;-64
2023/01/05 13:16:27;;;;;;;36.25;5.18;;;14.10;99.90;;;;;;5008931;28;20061;-64
2023/01/05 13:18:58;;;;;;;41.65;6.85;;;14.10;1.00;;;;;;5007803;28;20117;-64
2023/01/05 13:21:26;;;;;;;31.05;5.63;;;14.00;1.00;;;;;;4978601;28;20034;-64
2023/01/05 13:24:08;;;;;;;47.20;6.97;;;13.90;1.00;;;;;;4977529;28;20046;-65
2023/01/05 13:26:35;;;;;;;28.20;5.78;;;14.10;1.00;;;;;;4976944;28;20049;-64
2023/01/05 13:29:01;;;;;;;38.53;6.03;;;13.90;1.00;;;;;;4977587;28;20120;-64
2023/01/05 13:32:11;;;;;;;37.50;6.35;;;14.00;1.00;;;;;;4989463;28;20051;-65
2023/01/05 13:35:00;;;;;;;35.75;5.78;;;13.90;1.00;;;;;;4985946;28;20046;-65
2023/01/05 13:38:03;;;;;;;42.10;6.25;;;14.00;7.20;;;;;;4979433;28;20126;-64